createdAt,value
2023-01-09T00:01:44.587Z,6.30
2023-01-09T00:04:11.655Z,6.30
2023-01-09T00:06:38.335Z,6.40
2023-01-09T00:09:05.051Z,6.40
2023-01-09T00:11:31.672Z,6.50
2023-01-09T00:13:58.315Z,6.40
2023-01-09T00:16:25.045Z,6.40
2023-01-09T00:18:51.755Z,6.50
2023-01-09T00:21:18.628Z,6.50
2023-01-09T00:23:45.280Z,6.40
2023-01-09T00:26:11.952Z,6.50
2023-01-09T00:28:38.620Z,6.40
2023-01-09T00:31:05.393Z,6.30
2023-01-09T00:33:32.076Z,6.20
2023-01-09T00:35:58.738Z,5.90
2023-01-09T00:38:25.428Z,5.70
2023-01-09T00:40:52.177Z,6.00
2023-01-09T00:43:18.965Z,6.20
2023-01-09T00:45:45.673Z,6.30
2023-01-09T00:48:12.386Z,6.30
2023-01-09T00:50:39.075Z,6.40
2023-01-09T00:53:05.742Z,6.50
2023-01-09T00:55:32.440Z,6.50
2023-01-09T00:57:59.113Z,6.60
2023-01-09T01:00:25.800Z,6.50
2023-01-09T01:02:52.515Z,6.50
2023-01-09T01:05:19.195Z,6.10
2023-01-09T01:07:45.843Z,6.10
2023-01-09T01:10:12.488Z,6.20
2023-01-09T01:12:39.156Z,6.20
2023-01-09T01:15:05.852Z,6.30
2023-01-09T01:17:32.511Z,5.90
2023-01-09T01:19:59.187Z,5.80
2023-01-09T01:22:25.816Z,6.00
2023-01-09T01:24:52.483Z,6.00
2023-01-09T01:27:19.172Z,6.20
2023-01-09T01:29:45.780Z,6.30
2023-01-09T01:32:12.546Z,6.50
2023-01-09T01:34:39.329Z,6.50
2023-01-09T01:37:05.969Z,6.00
2023-01-09T01:39:32.685Z,6.10
2023-01-09T01:41:59.376Z,6.10
2023-01-09T01:44:26.017Z,6.10
2023-01-09T01:46:52.628Z,6.20
2023-01-09T01:49:19.273Z,6.30
2023-01-09T01:51:45.927Z,6.40
2023-01-09T01:54:12.529Z,6.30
2023-01-09T01:56:39.173Z,6.20
2023-01-09T01:59:05.809Z,6.20
2023-01-09T02:01:32.526Z,6.00
2023-01-09T02:03:59.180Z,6.10
2023-01-09T02:06:25.890Z,6.30
2023-01-09T02:08:52.519Z,6.40
2023-01-09T02:11:19.164Z,6.10
2023-01-09T02:13:47.946Z,6.10
2023-01-09T02:16:14.655Z,6.20
2023-01-09T02:18:41.375Z,6.40
2023-01-09T02:21:08.097Z,6.50
2023-01-09T02:23:34.741Z,6.30
2023-01-09T02:26:01.411Z,6.10
2023-01-09T02:28:28.339Z,5.90
2023-01-09T02:30:55.021Z,5.90
2023-01-09T02:33:21.679Z,6.10
2023-01-09T02:35:48.306Z,6.30
2023-01-09T02:38:14.923Z,6.30
2023-01-09T02:40:41.623Z,6.30
2023-01-09T02:43:08.469Z,5.90
2023-01-09T02:45:35.192Z,6.10
2023-01-09T02:48:02.131Z,6.00
2023-01-09T02:50:28.771Z,6.00
2023-01-09T02:52:55.446Z,6.00
2023-01-09T02:55:22.249Z,6.00
2023-01-09T02:57:48.974Z,6.10
2023-01-09T03:00:15.574Z,6.20
2023-01-09T03:02:42.290Z,6.40
2023-01-09T03:05:09.021Z,6.50
2023-01-09T03:07:35.712Z,6.70
2023-01-09T03:10:02.448Z,6.80
2023-01-09T03:12:29.076Z,6.90
2023-01-09T03:14:55.789Z,6.90
2023-01-09T03:17:22.500Z,6.70
2023-01-09T03:19:49.152Z,6.50
2023-01-09T03:22:15.899Z,6.60
2023-01-09T03:24:42.785Z,6.50
2023-01-09T03:27:09.457Z,6.70
2023-01-09T03:29:36.122Z,6.50
2023-01-09T03:32:02.847Z,6.40
2023-01-09T03:34:29.765Z,6.40
2023-01-09T03:36:56.479Z,6.30
2023-01-09T03:39:23.350Z,6.50
2023-01-09T03:41:50.050Z,6.60
2023-01-09T03:44:16.724Z,6.50
2023-01-09T03:46:43.411Z,6.70
2023-01-09T03:49:10.112Z,6.50
2023-01-09T03:51:36.743Z,6.50
2023-01-09T03:54:03.465Z,6.40
2023-01-09T03:56:30.142Z,6.40
2023-01-09T03:58:56.963Z,6.60
2023-01-09T04:01:23.841Z,6.60
2023-01-09T04:03:50.603Z,6.60
2023-01-09T04:06:17.387Z,6.40
2023-01-09T04:08:44.098Z,6.60
2023-01-09T04:11:11.001Z,6.40
2023-01-09T04:13:37.661Z,6.20
2023-01-09T04:16:04.526Z,6.30
2023-01-09T04:18:31.369Z,6.20
2023-01-09T04:20:58.094Z,5.90
2023-01-09T04:23:24.760Z,5.90
2023-01-09T04:25:51.413Z,5.60
2023-01-09T04:28:18.103Z,5.80
2023-01-09T04:30:44.789Z,6.10
2023-01-09T04:33:11.529Z,6.30
2023-01-09T04:35:38.239Z,6.60
2023-01-09T04:38:04.896Z,6.70
2023-01-09T04:40:31.610Z,6.90
2023-01-09T04:42:58.265Z,6.70
2023-01-09T04:45:24.947Z,6.60
2023-01-09T04:47:51.743Z,6.30
2023-01-09T04:50:18.544Z,6.60
2023-01-09T04:52:45.212Z,6.70
2023-01-09T04:55:11.903Z,6.70
2023-01-09T04:57:38.604Z,6.70
2023-01-09T05:00:05.229Z,6.80
2023-01-09T05:02:31.876Z,6.90
2023-01-09T05:04:58.537Z,6.90
2023-01-09T05:07:25.234Z,6.80
2023-01-09T05:09:51.852Z,6.90
2023-01-09T05:12:18.528Z,6.90
2023-01-09T05:14:45.171Z,6.90
2023-01-09T05:17:12.020Z,6.90
2023-01-09T05:19:38.690Z,6.90
2023-01-09T05:22:05.347Z,6.90
2023-01-09T05:24:32.242Z,6.90
2023-01-09T05:26:58.932Z,7.00
2023-01-09T05:29:25.547Z,6.30
2023-01-09T05:31:52.565Z,6.20
2023-01-09T05:34:19.206Z,6.30
2023-01-09T05:36:45.920Z,6.00
2023-01-09T05:39:12.620Z,6.30
2023-01-09T05:41:39.287Z,6.50
2023-01-09T05:44:05.949Z,6.60
2023-01-09T05:46:32.587Z,6.70
2023-01-09T05:48:59.439Z,6.70
2023-01-09T05:51:26.068Z,6.70
2023-01-09T05:53:52.940Z,6.60
2023-01-09T05:56:19.705Z,6.70
2023-01-09T05:58:46.553Z,6.60
2023-01-09T06:01:13.435Z,6.50
2023-01-09T06:03:40.141Z,6.10
2023-01-09T06:06:06.840Z,6.20
2023-01-09T06:08:33.514Z,5.80
2023-01-09T06:11:00.130Z,5.90
2023-01-09T06:13:26.775Z,6.10
2023-01-09T06:15:53.509Z,6.30
2023-01-09T06:18:20.180Z,6.10
2023-01-09T06:20:46.876Z,6.10
2023-01-09T06:23:13.912Z,6.10
2023-01-09T06:25:40.630Z,6.10
2023-01-09T06:28:07.369Z,6.10
2023-01-09T06:30:34.054Z,5.70
2023-01-09T06:33:00.791Z,5.70
2023-01-09T06:35:27.417Z,5.90
2023-01-09T06:37:54.084Z,5.60
2023-01-09T06:40:20.737Z,5.80
2023-01-09T06:42:47.624Z,6.00
2023-01-09T06:45:14.449Z,6.20
2023-01-09T06:47:41.102Z,5.70
2023-01-09T06:50:07.757Z,5.90
2023-01-09T06:52:34.414Z,6.30
2023-01-09T06:55:01.079Z,6.50
2023-01-09T06:57:27.827Z,6.50
2023-01-09T06:59:54.714Z,6.70
2023-01-09T07:02:21.353Z,6.50
2023-01-09T07:04:48.076Z,6.60
2023-01-09T07:07:14.817Z,6.80
2023-01-09T07:09:41.505Z,6.80
2023-01-09T07:12:08.215Z,6.40
2023-01-09T07:14:34.893Z,6.10
2023-01-09T07:17:01.800Z,5.90
2023-01-09T07:19:28.473Z,5.70
2023-01-09T07:21:55.126Z,6.00
2023-01-09T07:24:21.852Z,6.30
2023-01-09T07:26:48.616Z,6.40
2023-01-09T07:29:15.370Z,6.50
2023-01-09T07:31:42.106Z,6.80
2023-01-09T07:34:08.786Z,6.90
2023-01-09T07:36:35.446Z,6.90
2023-01-09T07:39:02.091Z,6.90
2023-01-09T07:41:28.720Z,7.10
2023-01-09T07:43:55.365Z,7.20
2023-01-09T07:46:22.151Z,7.20
2023-01-09T07:48:48.868Z,7.30
2023-01-09T07:51:15.507Z,7.30
2023-01-09T07:53:42.145Z,7.40
2023-01-09T07:56:08.813Z,7.20
2023-01-09T07:58:35.540Z,7.30
2023-01-09T08:01:02.252Z,7.10
2023-01-09T08:03:29.091Z,6.90
2023-01-09T08:05:55.781Z,7.00
2023-01-09T08:08:22.483Z,7.20
2023-01-09T08:10:49.188Z,7.30
2023-01-09T08:13:15.954Z,7.40
2023-01-09T08:15:42.709Z,7.60
2023-01-09T08:18:09.422Z,7.50
2023-01-09T08:20:36.103Z,7.60
2023-01-09T08:23:02.939Z,7.70
2023-01-09T08:25:29.639Z,7.50
2023-01-09T08:27:56.325Z,7.50
2023-01-09T08:30:23.076Z,7.50
2023-01-09T08:32:49.750Z,7.20
2023-01-09T08:35:16.422Z,6.90
2023-01-09T08:37:43.093Z,7.20
2023-01-09T08:40:09.780Z,7.40
2023-01-09T08:42:36.409Z,7.30
2023-01-09T08:45:03.097Z,7.50
2023-01-09T08:47:29.763Z,7.80
2023-01-09T08:49:56.475Z,8.00
2023-01-09T08:52:23.133Z,8.20
2023-01-09T08:54:49.917Z,7.90
2023-01-09T08:57:16.729Z,7.90
2023-01-09T08:59:43.369Z,8.10
2023-01-09T09:02:10.282Z,8.00
2023-01-09T09:04:36.964Z,7.90
2023-01-09T09:07:03.669Z,8.20
2023-01-09T09:09:30.392Z,8.10
2023-01-09T09:11:57.059Z,8.20
2023-01-09T09:14:25.557Z,8.40
2023-01-09T09:16:52.360Z,7.90
2023-01-09T09:19:19.247Z,7.40
2023-01-09T09:21:46.059Z,7.60
2023-01-09T09:24:12.989Z,7.50
2023-01-09T09:26:39.900Z,7.80
2023-01-09T09:29:06.643Z,8.00
2023-01-09T09:31:33.351Z,8.10
2023-01-09T09:34:00.129Z,8.30
2023-01-09T09:36:26.928Z,8.50
2023-01-09T09:38:53.706Z,8.40
2023-01-09T09:41:20.496Z,8.20
2023-01-09T09:43:47.453Z,8.10
2023-01-09T09:46:14.357Z,8.20
2023-01-09T09:48:41.153Z,8.40
2023-01-09T09:51:07.938Z,8.60
2023-01-09T09:53:34.807Z,8.40
2023-01-09T09:56:01.476Z,8.60
2023-01-09T09:58:28.487Z,8.80
2023-01-09T10:00:55.182Z,8.90
2023-01-09T10:03:33.026Z,9.00
2023-01-09T10:06:00.563Z,9.00
2023-01-09T10:08:27.443Z,9.00
2023-01-09T10:10:54.273Z,8.90
2023-01-09T10:13:21.064Z,9.10
2023-01-09T10:15:47.802Z,9.30
2023-01-09T10:18:14.491Z,9.50
2023-01-09T10:20:41.501Z,9.60
2023-01-09T10:23:08.402Z,9.40
2023-01-09T10:25:35.070Z,9.50
2023-01-09T10:28:01.801Z,9.70
2023-01-09T10:30:28.587Z,9.70
2023-01-09T10:32:55.342Z,9.70
2023-01-09T10:35:22.271Z,9.50
2023-01-09T10:37:49.059Z,9.30
2023-01-09T10:40:15.857Z,9.40
2023-01-09T10:42:42.752Z,9.40
2023-01-09T10:45:09.630Z,9.30
2023-01-09T10:47:36.302Z,9.40
2023-01-09T10:50:03.415Z,9.40
2023-01-09T10:52:30.173Z,9.50
2023-01-09T10:54:56.941Z,9.60
2023-01-09T10:57:23.748Z,9.70
2023-01-09T10:59:51.495Z,9.80
2023-01-09T11:02:18.403Z,9.70
2023-01-09T11:04:45.149Z,9.40
2023-01-09T11:07:11.829Z,9.60
2023-01-09T11:09:38.472Z,9.60
2023-01-09T11:12:05.160Z,9.60
2023-01-09T11:14:31.838Z,9.60
2023-01-09T11:16:58.458Z,9.30
2023-01-09T11:19:25.250Z,9.30
2023-01-09T11:21:52.020Z,8.90
2023-01-09T11:24:18.724Z,8.80
2023-01-09T11:26:45.431Z,8.40
2023-01-09T11:29:12.138Z,8.20
2023-01-09T11:31:38.873Z,8.30
2023-01-09T11:34:05.647Z,8.70
2023-01-09T11:36:32.379Z,8.30
2023-01-09T11:38:59.073Z,8.30
2023-01-09T11:41:25.723Z,8.80
2023-01-09T11:43:52.573Z,9.00
2023-01-09T11:46:19.382Z,8.80
2023-01-09T11:48:46.176Z,8.20
2023-01-09T11:51:12.961Z,8.50
2023-01-09T11:53:39.638Z,8.30
2023-01-09T11:56:06.596Z,8.30
2023-01-09T11:58:33.266Z,8.50
2023-01-09T12:00:59.945Z,8.90
2023-01-09T12:03:26.733Z,9.10
2023-01-09T12:05:53.480Z,9.30
2023-01-09T12:08:20.120Z,9.50
2023-01-09T12:10:46.805Z,9.50
2023-01-09T12:13:13.692Z,9.60
2023-01-09T12:15:40.372Z,9.60
2023-01-09T12:18:07.064Z,9.60
2023-01-09T12:20:33.700Z,9.60
2023-01-09T12:23:00.360Z,9.50
2023-01-09T12:25:27.056Z,8.90
2023-01-09T12:27:53.723Z,9.10
2023-01-09T12:30:20.400Z,9.10
2023-01-09T12:32:47.076Z,9.20
2023-01-09T12:35:13.715Z,9.20
2023-01-09T12:37:40.396Z,9.40
2023-01-09T12:40:07.112Z,9.00
2023-01-09T12:42:33.848Z,9.00
2023-01-09T12:45:00.558Z,8.70
2023-01-09T12:47:27.218Z,8.70
2023-01-09T12:49:53.867Z,8.80
2023-01-09T12:52:20.550Z,8.80
2023-01-09T12:54:47.203Z,9.00
2023-01-09T12:57:13.863Z,9.20
2023-01-09T12:59:40.525Z,9.40
2023-01-09T13:02:07.211Z,9.40
2023-01-09T13:04:33.936Z,9.40
2023-01-09T13:07:00.657Z,9.60
2023-01-09T13:09:27.395Z,9.80
2023-01-09T13:11:54.040Z,10.00
2023-01-09T13:14:20.730Z,9.90
2023-01-09T13:16:47.408Z,9.90
2023-01-09T13:19:14.106Z,9.80
2023-01-09T13:21:40.731Z,9.90
2023-01-09T13:24:07.397Z,10.10
2023-01-09T13:26:34.104Z,10.20
2023-01-09T13:29:00.735Z,10.20
2023-01-09T13:31:27.483Z,10.10
2023-01-09T13:33:54.151Z,9.80
2023-01-09T13:36:20.865Z,9.90
2023-01-09T13:38:47.558Z,9.90
2023-01-09T13:41:14.250Z,9.60
2023-01-09T13:43:40.930Z,9.40
2023-01-09T13:46:07.642Z,9.20
2023-01-09T13:48:34.330Z,9.20
2023-01-09T13:51:00.977Z,9.20
2023-01-09T13:53:27.646Z,9.50
2023-01-09T13:58:25.891Z,9.10
2023-01-09T14:00:52.812Z,9.30
2023-01-09T14:03:19.519Z,9.10
2023-01-09T14:05:46.254Z,9.20
2023-01-09T14:08:12.948Z,9.30
2023-01-09T14:10:39.706Z,9.20
2023-01-09T14:13:06.443Z,9.00
2023-01-09T14:15:33.237Z,9.00
2023-01-09T14:17:59.943Z,9.00
2023-01-09T14:20:26.644Z,9.10
2023-01-09T14:22:56.501Z,9.00
2023-01-09T14:25:31.938Z,9.20
2023-01-09T14:27:58.596Z,9.10
2023-01-09T14:30:25.273Z,8.70
2023-01-09T14:32:51.987Z,8.80
2023-01-09T14:35:18.677Z,8.80
2023-01-09T14:37:45.538Z,9.20
2023-01-09T14:40:12.405Z,9.60
2023-01-09T14:42:39.070Z,9.50
2023-01-09T14:45:05.844Z,9.40
2023-01-09T14:47:32.520Z,9.70
2023-01-09T14:49:59.244Z,9.30
2023-01-09T14:52:26.000Z,9.30
2023-01-09T14:54:52.674Z,9.20
2023-01-09T14:57:19.392Z,9.30
2023-01-09T14:59:46.033Z,9.00
2023-01-09T15:02:12.748Z,9.20
2023-01-09T15:04:39.460Z,9.40
2023-01-09T15:07:06.140Z,9.60
2023-01-09T15:09:32.805Z,9.60
2023-01-09T15:11:59.453Z,9.70
2023-01-09T15:14:26.194Z,9.60
2023-01-09T15:16:52.860Z,9.30
2023-01-09T15:19:19.935Z,9.10
2023-01-09T15:21:46.839Z,9.20
2023-01-09T15:24:13.576Z,8.80
2023-01-09T15:26:40.324Z,8.80
2023-01-09T15:29:07.193Z,9.10
2023-01-09T15:31:33.901Z,8.90
2023-01-09T15:34:00.668Z,8.90
2023-01-09T15:36:27.377Z,8.90
2023-01-09T15:38:54.056Z,9.10
2023-01-09T15:41:20.679Z,9.10
2023-01-09T15:43:47.612Z,9.30
2023-01-09T15:46:14.248Z,9.20
2023-01-09T15:48:40.889Z,9.00
2023-01-09T15:51:07.528Z,9.00
2023-01-09T15:53:34.223Z,9.10
2023-01-09T15:56:00.936Z,9.40
2023-01-09T15:58:27.567Z,9.50
2023-01-09T16:00:54.322Z,9.40
2023-01-09T16:03:20.957Z,9.30
2023-01-09T16:05:47.665Z,9.20
2023-01-09T16:08:14.366Z,8.80
2023-01-09T16:10:41.036Z,8.70
2023-01-09T16:13:07.697Z,8.70
2023-01-09T16:15:34.338Z,8.60
2023-01-09T16:18:01.023Z,8.80
2023-01-09T16:20:27.648Z,9.20
2023-01-09T16:22:54.456Z,8.40
2023-01-09T16:25:21.206Z,8.20
2023-01-09T16:27:47.889Z,8.20
2023-01-09T16:30:14.612Z,8.20
2023-01-09T16:32:41.314Z,8.10
2023-01-09T16:35:07.976Z,8.30
2023-01-09T16:37:34.693Z,8.30
2023-01-09T16:40:01.389Z,8.50
2023-01-09T16:42:28.329Z,8.60
2023-01-09T16:44:54.999Z,8.80
2023-01-09T16:47:21.662Z,8.30
2023-01-09T16:49:48.368Z,8.50
2023-01-09T16:52:14.994Z,8.50
2023-01-09T16:54:41.631Z,8.70
2023-01-09T16:57:08.249Z,8.70
2023-01-09T16:59:34.888Z,9.00
2023-01-09T17:02:01.774Z,9.20
2023-01-09T17:04:28.408Z,9.10
2023-01-09T17:06:55.064Z,9.20
2023-01-09T17:09:21.767Z,9.20
2023-01-09T17:11:48.445Z,9.20
2023-01-09T17:14:15.139Z,9.30
2023-01-09T17:16:41.854Z,9.30
2023-01-09T17:19:08.720Z,9.30
2023-01-09T17:21:35.369Z,8.90
2023-01-09T17:24:02.053Z,9.00
2023-01-09T17:26:28.761Z,9.00
2023-01-09T17:28:55.436Z,9.10
2023-01-09T17:31:22.133Z,9.00
2023-01-09T17:33:48.856Z,8.70
2023-01-09T17:36:15.542Z,8.70
2023-01-09T17:38:42.219Z,8.70
2023-01-09T17:41:08.960Z,8.50
2023-01-09T17:43:35.624Z,8.50
2023-01-09T17:46:02.412Z,8.60
2023-01-09T17:48:29.096Z,8.90
2023-01-09T17:50:55.839Z,8.50
2023-01-09T17:53:22.518Z,8.70
2023-01-09T17:55:49.160Z,8.70
2023-01-09T17:58:15.864Z,8.90
2023-01-09T18:00:42.567Z,8.90
2023-01-09T18:03:09.274Z,8.70
2023-01-09T18:05:35.911Z,9.00
2023-01-09T18:08:02.584Z,9.00
2023-01-09T18:10:29.315Z,9.20
2023-01-09T18:12:55.982Z,9.10
2023-01-09T18:15:22.623Z,9.20
2023-01-09T18:17:49.261Z,9.40
2023-01-09T18:20:15.910Z,9.50
2023-01-09T18:22:42.599Z,9.30
2023-01-09T18:25:09.316Z,9.30
2023-01-09T18:27:36.091Z,9.40
2023-01-09T18:30:05.318Z,9.50
2023-01-09T18:32:32.257Z,9.40
2023-01-09T18:34:59.342Z,9.20
2023-01-09T18:37:26.038Z,9.10
2023-01-09T18:39:52.705Z,9.00
2023-01-09T18:42:19.639Z,9.20
2023-01-09T18:44:46.367Z,9.30
2023-01-09T18:47:13.007Z,9.30
2023-01-09T18:49:39.664Z,9.10
2023-01-09T18:52:07.668Z,9.10
2023-01-09T18:54:34.484Z,9.10
2023-01-09T18:57:01.294Z,9.20
2023-01-09T18:59:28.361Z,9.30
2023-01-09T19:01:55.056Z,8.90
2023-01-09T19:04:21.904Z,9.00
2023-01-09T19:06:48.630Z,9.20
2023-01-09T19:09:15.695Z,9.00
2023-01-09T19:11:42.371Z,9.10
2023-01-09T19:14:09.056Z,9.00
2023-01-09T19:16:35.730Z,9.10
2023-01-09T19:19:02.668Z,8.80
2023-01-09T19:21:29.328Z,9.10
2023-01-09T19:23:55.943Z,9.00
2023-01-09T19:26:22.590Z,9.20
2023-01-09T19:28:49.215Z,9.00
2023-01-09T19:31:16.472Z,9.00
2023-01-09T19:33:43.172Z,8.80
2023-01-09T19:36:09.877Z,9.00
2023-01-09T19:38:36.526Z,9.00
2023-01-09T19:41:03.460Z,9.00
2023-01-09T19:43:30.156Z,9.10
2023-01-09T19:45:56.872Z,9.20
2023-01-09T19:48:23.611Z,8.60
2023-01-09T19:50:50.269Z,8.40
2023-01-09T19:53:17.217Z,8.70
2023-01-09T19:55:43.835Z,8.70
2023-01-09T19:58:10.514Z,8.60
2023-01-09T20:00:37.141Z,8.70
2023-01-09T20:03:03.855Z,8.90
2023-01-09T20:05:30.476Z,9.10
2023-01-09T20:07:57.127Z,9.20
2023-01-09T20:10:23.796Z,9.10
2023-01-09T20:12:50.445Z,9.30
2023-01-09T20:15:17.155Z,8.80
2023-01-09T20:17:43.856Z,8.80
2023-01-09T20:20:10.546Z,8.70
2023-01-09T20:22:37.226Z,8.60
2023-01-09T20:25:03.870Z,8.70
2023-01-09T20:27:30.510Z,8.70
2023-01-09T20:29:57.152Z,9.00
2023-01-09T20:32:23.769Z,8.90
2023-01-09T20:34:50.416Z,8.50
2023-01-09T20:37:17.100Z,8.60
2023-01-09T20:39:43.819Z,8.40
2023-01-09T20:42:10.476Z,8.50
2023-01-09T20:44:37.106Z,8.60
2023-01-09T20:47:03.915Z,8.60
2023-01-09T20:49:30.569Z,8.60
2023-01-09T20:51:57.211Z,8.40
2023-01-09T20:54:23.927Z,7.80
2023-01-09T20:56:51.093Z,7.80
2023-01-09T20:59:17.753Z,8.00
2023-01-09T21:01:44.404Z,8.30
2023-01-09T21:04:11.163Z,8.50
2023-01-09T21:06:37.968Z,8.50
2023-01-09T21:09:04.687Z,8.50
2023-01-09T21:11:31.327Z,8.30
2023-01-09T21:13:57.976Z,8.50
2023-01-09T21:16:24.854Z,8.40
2023-01-09T21:18:51.673Z,8.60
2023-01-09T21:21:18.531Z,8.50
2023-01-09T21:23:45.214Z,8.10
2023-01-09T21:26:11.889Z,8.10
2023-01-09T21:28:38.574Z,8.20
2023-01-09T21:31:05.276Z,8.20
2023-01-09T21:33:32.149Z,8.30
2023-01-09T21:35:58.803Z,8.30
2023-01-09T21:38:25.565Z,8.50
2023-01-09T21:40:52.241Z,8.30
2023-01-09T21:43:18.948Z,8.30
2023-01-09T21:45:45.754Z,8.30
2023-01-09T21:48:12.405Z,8.10
2023-01-09T21:50:39.056Z,8.30
2023-01-09T21:53:05.685Z,8.00
2023-01-09T21:55:32.360Z,7.80
2023-01-09T21:57:59.045Z,7.80
2023-01-09T22:00:25.704Z,7.70
2023-01-09T22:02:52.391Z,7.90
2023-01-09T22:05:19.083Z,7.80
2023-01-09T22:07:45.748Z,7.90
2023-01-09T22:10:12.388Z,7.60
2023-01-09T22:12:39.024Z,7.80
2023-01-09T22:15:05.839Z,8.20
2023-01-09T22:17:32.591Z,8.30
2023-01-09T22:19:59.263Z,8.20
2023-01-09T22:22:26.022Z,8.00
2023-01-09T22:24:52.689Z,8.20
2023-01-09T22:27:19.389Z,8.40
2023-01-09T22:29:46.052Z,8.40
2023-01-09T22:32:12.739Z,8.30
2023-01-09T22:34:39.437Z,8.30
2023-01-09T22:37:06.242Z,8.30
2023-01-09T22:39:32.928Z,7.50
2023-01-09T22:41:59.673Z,7.40
2023-01-09T22:44:26.339Z,7.20
2023-01-09T22:46:53.229Z,7.40
2023-01-09T22:49:19.939Z,7.60
2023-01-09T22:51:46.647Z,7.20
2023-01-09T22:54:13.367Z,7.40
2023-01-09T22:56:40.395Z,7.70
2023-01-09T22:59:07.125Z,7.50
2023-01-09T23:01:33.808Z,7.20
2023-01-09T23:04:00.454Z,7.10
2023-01-09T23:06:27.279Z,7.00
2023-01-09T23:08:53.967Z,7.30
2023-01-09T23:11:20.640Z,7.40
2023-01-09T23:13:47.325Z,7.40
2023-01-09T23:16:13.954Z,7.00
2023-01-09T23:18:40.658Z,7.20
2023-01-09T23:21:07.475Z,6.90
2023-01-09T23:23:34.169Z,7.20
2023-01-09T23:26:00.831Z,7.40
2023-01-09T23:28:27.519Z,7.10
2023-01-09T23:30:54.178Z,7.00
2023-01-09T23:33:20.897Z,7.10
2023-01-09T23:35:47.572Z,7.20
2023-01-09T23:38:14.201Z,7.10
2023-01-09T23:40:40.811Z,7.20
2023-01-09T23:43:07.538Z,7.30
2023-01-09T23:45:34.508Z,7.30
2023-01-09T23:48:01.211Z,7.00
2023-01-09T23:50:27.900Z,7.10
2023-01-09T23:52:54.750Z,7.30
2023-01-09T23:55:21.445Z,7.30
2023-01-09T23:57:48.109Z,7.50
